Time;durP1;ratioP1;P1;durP2;ratioP2;P2;SDS_P1;SDS_P2;PMS_P1;PMS_P2;Temp;Humidity;BMP_temperature;BMP_pressure;BME280_temperature;BME280_humidity;BME280_pressure;Samples;Min_cycle;Max_cycle;Signal;HPM_P1;HPM_P2
2023/01/21 00:02:04;;;;;;;1999.90;999.90;;;-0.60;99.90;;;;;;5013659;28;20180;-78
2023/01/21 00:04:33;;;;;;;1999.90;999.90;;;-0.60;99.90;;;;;;5012453;28;20032;-78
2023/01/21 00:06:59;;;;;;;1999.90;999.90;;;-0.60;99.90;;;;;;5013812;28;20100;-78
2023/01/21 00:09:24;;;;;;;1999.90;999.90;;;-0.60;99.90;;;;;;5012518;28;20125;-78
2023/01/21 00:11:50;;;;;;;1999.90;999.90;;;-0.50;99.90;;;;;;5012642;28;20057;-78
2023/01/21 00:14:15;;;;;;;1999.90;999.90;;;-0.50;99.90;;;;;;5012212;28;20049;-78
2023/01/21 00:16:41;;;;;;;1999.90;999.90;;;-0.50;99.90;;;;;;5012096;28;20061;-78
2023/01/21 00:19:07;;;;;;;1999.90;999.90;;;-0.50;99.90;;;;;;5012950;28;20409;-78
2023/01/21 00:21:32;;;;;;;1999.90;999.90;;;-0.50;99.90;;;;;;5012993;28;20468;-78
2023/01/21 00:23:58;;;;;;;1999.90;999.90;;;-0.50;99.90;;;;;;5013374;28;20378;-78
2023/01/21 00:26:23;;;;;;;1999.90;999.90;;;-0.50;99.90;;;;;;5013450;28;20525;-78
2023/01/21 00:28:49;;;;;;;1999.90;999.90;;;-0.50;99.90;;;;;;5013566;28;20025;-78
2023/01/21 00:31:15;;;;;;;1999.90;999.90;;;-0.50;99.90;;;;;;5011769;28;20087;-78
2023/01/21 00:33:40;;;;;;;1999.90;999.90;;;-0.50;99.90;;;;;;5011842;28;20021;-78
2023/01/21 00:36:10;;;;;;;1999.90;999.90;;;-0.50;99.90;;;;;;5013073;28;20495;-78
2023/01/21 00:38:35;;;;;;;1999.90;999.90;;;-0.50;99.90;;;;;;5012936;28;20026;-77
2023/01/21 00:41:03;;;;;;;1999.90;999.90;;;-0.50;99.90;;;;;;5012984;28;20026;-77
2023/01/21 00:43:29;;;;;;;1999.90;999.90;;;-0.60;99.90;;;;;;5012915;28;20445;-77
2023/01/21 00:45:55;;;;;;;1999.90;999.90;;;-0.60;99.90;;;;;;5013007;28;20109;-77
2023/01/21 00:48:21;;;;;;;1999.90;999.90;;;-0.60;99.90;;;;;;5011737;28;20033;-77
2023/01/21 00:50:47;;;;;;;1999.90;999.90;;;-0.70;99.90;;;;;;5013277;28;20057;-77
2023/01/21 00:53:12;;;;;;;1999.90;999.90;;;-0.70;99.90;;;;;;5013082;28;20026;-77
2023/01/21 00:55:38;;;;;;;1999.90;999.90;;;-0.70;99.90;;;;;;5013236;28;20397;-77
2023/01/21 00:58:04;;;;;;;1999.90;999.90;;;-0.70;99.90;;;;;;5012554;28;20404;-77
2023/01/21 01:00:29;;;;;;;1999.90;999.90;;;-0.70;99.90;;;;;;5012689;28;20370;-77
2023/01/21 01:02:55;;;;;;;1999.90;999.90;;;-0.80;99.90;;;;;;5011376;28;20021;-77
2023/01/21 01:05:21;;;;;;;1999.90;999.90;;;-0.80;99.90;;;;;;5013037;28;20080;-77
2023/01/21 01:07:49;;;;;;;1999.90;999.90;;;-0.80;99.90;;;;;;5012761;28;20537;-77
2023/01/21 01:10:15;;;;;;;1999.90;999.90;;;-0.80;99.90;;;;;;5012534;28;20041;-77
2023/01/21 01:12:41;;;;;;;1999.90;999.90;;;-0.80;99.90;;;;;;5013160;28;20026;-78
2023/01/21 01:15:07;;;;;;;1999.90;999.90;;;-0.80;99.90;;;;;;5012619;28;20037;-78
2023/01/21 01:17:33;;;;;;;1999.90;999.90;;;-0.90;99.90;;;;;;5011050;28;20026;-78
2023/01/21 01:19:59;;;;;;;1999.90;999.90;;;-0.90;99.90;;;;;;5011403;28;20030;-78
2023/01/21 01:22:24;;;;;;;1999.90;999.90;;;-0.90;99.90;;;;;;5012441;28;20460;-78
2023/01/21 01:24:50;;;;;;;1999.90;999.90;;;-0.90;99.90;;;;;;5012746;28;20095;-78
2023/01/21 01:27:15;;;;;;;1999.90;999.90;;;-1.00;99.90;;;;;;5012671;28;20029;-78
2023/01/21 01:29:41;;;;;;;1999.90;999.90;;;-0.90;99.90;;;;;;5012825;28;20084;-78
2023/01/21 01:32:07;;;;;;;1999.90;999.90;;;-0.90;99.90;;;;;;5011453;28;20492;-78
2023/01/21 01:34:32;;;;;;;1999.90;999.90;;;-1.00;99.90;;;;;;5012303;28;20065;-78
2023/01/21 01:36:58;;;;;;;1999.90;999.90;;;-1.00;99.90;;;;;;5012427;28;20064;-78
2023/01/21 01:39:23;;;;;;;1999.90;999.90;;;-0.90;99.90;;;;;;5012360;28;20026;-78
2023/01/21 01:41:49;;;;;;;1999.90;999.90;;;-1.00;99.90;;;;;;5012546;28;20436;-78
2023/01/21 01:44:52;;;;;;;1999.90;999.90;;;-0.90;99.90;;;;;;5012565;28;20034;-78
2023/01/21 01:47:19;;;;;;;1999.90;999.90;;;-0.90;99.90;;;;;;5012367;28;20396;-78
2023/01/21 01:49:46;;;;;;;1999.90;999.90;;;-1.00;99.90;;;;;;5012495;28;20018;-78
2023/01/21 01:52:13;;;;;;;1999.90;999.90;;;-1.00;99.90;;;;;;5012385;28;20033;-78
2023/01/21 01:54:47;;;;;;;1999.90;999.90;;;-1.00;99.90;;;;;;5011369;28;20056;-77
2023/01/21 01:57:17;;;;;;;1999.90;999.90;;;-1.00;99.90;;;;;;5013715;28;20080;-77
2023/01/21 01:59:44;;;;;;;1999.90;999.90;;;-1.00;99.90;;;;;;5014909;28;20030;-77
2023/01/21 02:02:13;;;;;;;1999.90;999.90;;;-1.10;99.90;;;;;;5016219;28;20077;-78
2023/01/21 02:04:44;;;;;;;1999.90;999.90;;;-1.10;99.90;;;;;;5016246;28;20053;-78
2023/01/21 02:07:11;;;;;;;1999.90;999.90;;;-1.00;99.90;;;;;;5016037;28;20044;-78
2023/01/21 02:09:36;;;;;;;1999.90;999.90;;;-1.00;99.90;;;;;;5015654;28;20033;-78
2023/01/21 02:12:04;;;;;;;1999.90;999.90;;;-1.00;99.90;;;;;;5014343;28;20033;-78
2023/01/21 02:14:35;;;;;;;1999.90;999.90;;;-1.10;99.90;;;;;;5015605;28;20449;-78
2023/01/21 02:17:13;;;;;;;1999.90;999.90;;;-1.10;99.90;;;;;;5015855;28;20030;-78
2023/01/21 02:19:57;;;;;;;1999.90;999.90;;;-1.10;99.90;;;;;;5015790;28;20450;-78
2023/01/21 02:22:56;;;;;;;1999.90;999.90;;;-1.10;99.90;;;;;;5015715;28;20125;-78
2023/01/21 02:25:41;;;;;;;1999.90;999.90;;;-1.10;99.90;;;;;;5015653;28;20049;-78
2023/01/21 02:28:40;;;;;;;1999.90;999.90;;;-1.10;99.90;;;;;;5015542;28;20100;-78
2023/01/21 02:31:30;;;;;;;1999.90;999.90;;;-1.00;99.90;;;;;;5015297;28;20022;-78
2023/01/21 02:34:27;;;;;;;1999.90;999.90;;;-1.00;99.90;;;;;;5015404;28;20048;-78
2023/01/21 02:37:18;;;;;;;1999.90;999.90;;;-1.00;99.90;;;;;;5015061;28;20072;-78
2023/01/21 02:40:10;;;;;;;1999.90;999.90;;;-0.90;99.90;;;;;;5015203;28;20036;-78
2023/01/21 02:42:45;;;;;;;1999.90;999.90;;;-1.00;99.90;;;;;;5014817;28;20496;-78
2023/01/21 02:45:32;;;;;;;1999.90;999.90;;;-1.00;99.90;;;;;;5015228;28;20034;-78
2023/01/21 02:48:19;;;;;;;1999.90;999.90;;;-1.10;99.90;;;;;;5015259;28;20025;-78
2023/01/21 02:50:49;;;;;;;1999.90;999.90;;;-1.10;99.90;;;;;;5014998;28;20037;-78
2023/01/21 02:53:29;;;;;;;1999.90;999.90;;;-1.00;99.90;;;;;;5014678;28;20489;-78
2023/01/21 02:56:03;;;;;;;1999.90;999.90;;;-1.00;99.90;;;;;;5013865;28;20069;-78
2023/01/21 02:58:33;;;;;;;1999.90;999.90;;;-1.00;99.90;;;;;;5013800;28;20116;-78
2023/01/21 03:01:16;;;;;;;1999.90;999.90;;;-1.00;99.90;;;;;;5015422;28;20030;-78
2023/01/21 03:03:57;;;;;;;1999.90;999.90;;;-1.00;99.90;;;;;;5015015;28;20046;-78
2023/01/21 03:06:37;;;;;;;1999.90;999.90;;;-1.00;99.90;;;;;;5014700;28;20029;-78
2023/01/21 03:09:17;;;;;;;1999.90;999.90;;;-1.10;99.90;;;;;;5013288;28;20163;-78
2023/01/21 03:11:51;;;;;;;1999.90;999.90;;;-1.10;99.90;;;;;;5014891;28;20388;-78
2023/01/21 03:17:46;;;;;;;1999.90;999.90;;;-1.10;99.90;;;;;;5014382;28;20052;-78
2023/01/21 03:20:18;;;;;;;1999.90;999.90;;;-1.10;99.90;;;;;;5003052;28;20030;-78
2023/01/21 03:22:46;;;;;;;1999.90;999.90;;;-1.10;99.90;;;;;;5014342;28;20088;-78
2023/01/21 03:25:14;;;;;;;1999.90;999.90;;;-1.00;99.90;;;;;;5014522;28;20030;-78
2023/01/21 03:27:43;;;;;;;1999.90;999.90;;;-1.10;99.90;;;;;;5013031;28;20061;-78
2023/01/21 03:30:18;;;;;;;1999.90;999.90;;;-1.00;99.90;;;;;;5014084;28;20025;-78
2023/01/21 03:32:49;;;;;;;1999.90;999.90;;;-1.10;99.90;;;;;;5013991;28;20029;-78
2023/01/21 03:35:25;;;;;;;1999.90;999.90;;;-1.10;99.90;;;;;;5012756;28;20438;-78
2023/01/21 03:37:54;;;;;;;1999.90;999.90;;;-1.20;99.90;;;;;;5014060;28;20068;-78
2023/01/21 03:40:28;;;;;;;1999.90;999.90;;;-1.30;99.90;;;;;;5012888;28;20044;-77
2023/01/21 03:42:55;;;;;;;1999.90;999.90;;;-1.20;99.90;;;;;;5013889;28;20084;-77
2023/01/21 03:45:42;;;;;;;1999.90;999.90;;;-1.20;99.90;;;;;;5013979;28;20029;-77
2023/01/21 03:48:36;;;;;;;1999.90;999.90;;;-1.20;99.90;;;;;;5013861;28;20034;-78
2023/01/21 03:51:08;;;;;;;1999.90;999.90;;;-1.30;99.90;;;;;;5013875;28;20389;-78
2023/01/21 03:53:33;;;;;;;1999.90;999.90;;;-1.30;99.90;;;;;;5013889;28;20022;-77
2023/01/21 03:55:59;;;;;;;1999.90;999.90;;;-1.20;99.90;;;;;;5013961;28;20018;-77
2023/01/21 03:58:26;;;;;;;1999.90;999.90;;;-1.20;99.90;;;;;;5013470;28;20026;-77
2023/01/21 04:00:51;;;;;;;1999.90;999.90;;;-1.40;99.90;;;;;;5013751;28;20092;-77
2023/01/21 04:03:17;;;;;;;1999.90;999.90;;;-1.50;99.90;;;;;;5012369;28;20488;-77
2023/01/21 04:05:42;;;;;;;1999.90;999.90;;;-1.50;99.90;;;;;;5013670;28;20056;-78
2023/01/21 04:08:08;;;;;;;1999.90;999.90;;;-1.60;99.90;;;;;;5013548;28;20152;-78
2023/01/21 04:10:34;;;;;;;1999.90;999.90;;;-1.50;99.90;;;;;;5011905;28;20041;-78
2023/01/21 04:12:59;;;;;;;1999.90;999.90;;;-1.60;99.90;;;;;;5013094;28;20096;-78
2023/01/21 04:15:25;;;;;;;1999.90;999.90;;;-1.60;99.90;;;;;;5013444;28;20405;-78
2023/01/21 04:17:50;;;;;;;1999.90;999.90;;;-1.60;99.90;;;;;;5011459;28;20021;-78
2023/01/21 04:20:17;;;;;;;1999.90;999.90;;;-1.60;99.90;;;;;;5011544;28;20014;-78
2023/01/21 04:22:43;;;;;;;1999.90;999.90;;;-1.60;99.90;;;;;;5013119;28;20504;-78
2023/01/21 04:25:08;;;;;;;1999.90;999.90;;;-1.60;99.90;;;;;;5013130;28;20034;-77
2023/01/21 04:27:34;;;;;;;1999.90;999.90;;;-1.60;99.90;;;;;;5013341;28;20544;-77
2023/01/21 04:30:00;;;;;;;1999.90;999.90;;;-1.60;99.90;;;;;;5013228;28;20022;-78
2023/01/21 04:32:25;;;;;;;1999.90;999.90;;;-1.60;99.90;;;;;;5013112;28;20064;-78
2023/01/21 04:34:51;;;;;;;1999.90;999.90;;;-1.70;99.90;;;;;;5013129;28;20057;-78
2023/01/21 04:37:16;;;;;;;1999.90;999.90;;;-1.80;99.90;;;;;;5013018;28;20033;-78
2023/01/21 04:39:42;;;;;;;1999.90;999.90;;;-1.80;99.90;;;;;;5011582;28;20564;-78
2023/01/21 04:42:08;;;;;;;1999.90;999.90;;;-1.80;99.90;;;;;;5011822;28;20026;-78
2023/01/21 04:44:33;;;;;;;1999.90;999.90;;;-1.80;99.90;;;;;;5012975;28;20042;-78
2023/01/21 04:46:59;;;;;;;1999.90;999.90;;;-1.90;99.90;;;;;;5012932;28;20097;-78
2023/01/21 04:49:24;;;;;;;1999.90;999.90;;;-1.90;99.90;;;;;;5011524;28;20026;-78
2023/01/21 04:51:50;;;;;;;1999.90;999.90;;;-1.90;99.90;;;;;;5013053;28;20030;-78
2023/01/21 04:54:16;;;;;;;1999.90;999.90;;;-1.90;99.90;;;;;;5013791;28;20397;-78
2023/01/21 04:56:41;;;;;;;1999.90;999.90;;;-2.00;99.90;;;;;;5013000;28;20504;-78
2023/01/21 04:59:07;;;;;;;1999.90;999.90;;;-2.00;99.90;;;;;;5012763;28;20076;-78
2023/01/21 05:01:33;;;;;;;1999.90;999.90;;;-2.00;99.90;;;;;;5013096;28;20029;-78
2023/01/21 05:03:58;;;;;;;1999.90;999.90;;;-2.00;99.90;;;;;;5013172;28;20460;-78
2023/01/21 05:06:24;;;;;;;1999.90;999.90;;;-2.00;99.90;;;;;;5012904;28;20036;-78
2023/01/21 05:08:49;;;;;;;1999.90;999.90;;;-2.00;99.90;;;;;;5012771;28;20034;-78
2023/01/21 05:11:17;;;;;;;1999.90;999.90;;;-2.00;99.90;;;;;;5013053;28;20069;-77
2023/01/21 05:13:43;;;;;;;1999.90;999.90;;;-1.90;99.90;;;;;;5012890;28;20089;-78
2023/01/21 05:16:09;;;;;;;1999.90;999.90;;;-1.90;99.90;;;;;;5011578;28;20417;-78
2023/01/21 05:18:38;;;;;;;1999.90;999.90;;;-2.00;99.90;;;;;;5012815;28;20029;-78
2023/01/21 05:21:04;;;;;;;1999.90;999.90;;;-2.00;99.90;;;;;;5011245;28;20575;-78
2023/01/21 05:23:29;;;;;;;1999.90;999.90;;;-2.00;99.90;;;;;;5012663;28;20493;-78
2023/01/21 05:25:55;;;;;;;1999.90;999.90;;;-2.00;99.90;;;;;;5018974;28;20109;-78
2023/01/21 05:28:21;;;;;;;1999.90;999.90;;;-2.00;99.90;;;;;;5012518;28;20030;-78
2023/01/21 05:30:46;;;;;;;1999.90;999.90;;;-2.00;99.90;;;;;;5011093;28;20029;-78
2023/01/21 05:33:12;;;;;;;1999.90;999.90;;;-2.10;99.90;;;;;;5015254;28;20030;-78
2023/01/21 05:35:38;;;;;;;1999.90;999.90;;;-2.10;99.90;;;;;;5016657;28;20033;-78
2023/01/21 05:38:03;;;;;;;1999.90;999.90;;;-2.00;99.90;;;;;;5015337;28;20025;-78
2023/01/21 05:40:29;;;;;;;1999.90;999.90;;;-2.00;99.90;;;;;;5016243;28;20045;-78
2023/01/21 05:42:55;;;;;;;1999.90;999.90;;;-2.00;99.90;;;;;;5016204;28;20470;-78
2023/01/21 05:45:20;;;;;;;1999.90;999.90;;;-2.00;99.90;;;;;;5016173;28;20022;-78
2023/01/21 05:47:46;;;;;;;1999.90;999.90;;;-2.00;99.90;;;;;;5014969;28;20026;-78
2023/01/21 05:50:12;;;;;;;1999.90;999.90;;;-2.00;99.90;;;;;;5016122;28;20449;-78
2023/01/21 05:52:38;;;;;;;1999.90;999.90;;;-2.00;99.90;;;;;;5015924;28;20029;-78
2023/01/21 05:55:04;;;;;;;1999.90;999.90;;;-2.00;99.90;;;;;;5016319;28;20025;-78
2023/01/21 05:57:30;;;;;;;1999.90;999.90;;;-2.00;99.90;;;;;;5015918;28;20054;-78
2023/01/21 05:59:56;;;;;;;1999.90;999.90;;;-2.00;99.90;;;;;;5014471;28;20576;-78
2023/01/21 06:02:22;;;;;;;1999.90;999.90;;;-2.00;99.90;;;;;;5014677;28;20116;-78
2023/01/21 06:04:47;;;;;;;1999.90;999.90;;;-2.00;99.90;;;;;;5014848;28;20120;-78
2023/01/21 06:07:13;;;;;;;1999.90;999.90;;;-1.90;99.90;;;;;;5016090;28;20041;-78
2023/01/21 06:09:39;;;;;;;1999.90;999.90;;;-1.90;99.90;;;;;;5016231;28;20034;-77
2023/01/21 06:12:05;;;;;;;1999.90;999.90;;;-1.80;99.90;;;;;;5014775;28;20042;-78
2023/01/21 06:14:30;;;;;;;1999.90;999.90;;;-1.80;99.90;;;;;;5015810;28;20040;-77
2023/01/21 06:16:56;;;;;;;1999.90;999.90;;;-1.80;99.90;;;;;;5015837;28;20014;-78
2023/01/21 06:19:21;;;;;;;1999.90;999.90;;;-1.80;99.90;;;;;;5015639;28;20076;-78
2023/01/21 06:21:47;;;;;;;1999.90;999.90;;;-1.70;99.90;;;;;;5014553;28;20715;-78
2023/01/21 06:24:13;;;;;;;1999.90;999.90;;;-1.70;99.90;;;;;;5015827;28;20030;-77
2023/01/21 06:26:38;;;;;;;1999.90;999.90;;;-1.70;99.90;;;;;;5015360;28;20113;-78
2023/01/21 06:29:04;;;;;;;1999.90;999.90;;;-1.70;99.90;;;;;;5015504;28;20041;-78
2023/01/21 06:31:30;;;;;;;1999.90;999.90;;;-1.70;99.90;;;;;;5015393;28;20029;-78
2023/01/21 06:33:55;;;;;;;1999.90;999.90;;;-1.60;99.90;;;;;;5015309;28;20030;-78
2023/01/21 06:36:21;;;;;;;1999.90;999.90;;;-1.50;99.90;;;;;;5014960;28;20021;-78
2023/01/21 06:38:46;;;;;;;1999.90;999.90;;;-1.50;99.90;;;;;;5015203;28;20057;-78
2023/01/21 06:41:12;;;;;;;1999.90;999.90;;;-1.40;99.90;;;;;;5015144;28;20025;-78
2023/01/21 06:43:38;;;;;;;1999.90;999.90;;;-1.40;99.90;;;;;;5014820;28;20062;-78
2023/01/21 06:46:03;;;;;;;1999.90;999.90;;;-1.30;99.90;;;;;;5013715;28;20033;-77
2023/01/21 06:48:29;;;;;;;1999.90;999.90;;;-1.30;99.90;;;;;;5014899;28;20040;-77
2023/01/21 06:50:55;;;;;;;1999.90;999.90;;;-1.10;99.90;;;;;;5015128;28;20098;-77
2023/01/21 06:53:20;;;;;;;1999.90;999.90;;;-1.10;99.90;;;;;;5015204;28;20029;-77
2023/01/21 06:55:46;;;;;;;1999.90;999.90;;;-0.90;99.90;;;;;;5015393;28;20097;-77
2023/01/21 06:58:13;;;;;;;1999.90;999.90;;;-0.90;99.90;;;;;;5013806;28;20530;-77
2023/01/21 07:00:38;;;;;;;1999.90;999.90;;;-0.80;99.90;;;;;;5014960;28;20489;-77
2023/01/21 07:03:04;;;;;;;1999.90;999.90;;;-0.70;99.90;;;;;;5014578;28;20042;-77
2023/01/21 07:05:30;;;;;;;1999.90;999.90;;;-0.70;99.90;;;;;;5014919;28;20030;-77
2023/01/21 07:07:56;;;;;;;1999.90;999.90;;;-0.60;99.90;;;;;;5014817;28;20037;-77
2023/01/21 07:10:23;;;;;;;1999.90;999.90;;;-0.50;99.90;;;;;;5014587;28;20397;-77
2023/01/21 07:12:49;;;;;;;1999.90;999.90;;;-0.40;99.90;;;;;;5013163;28;20042;-77
2023/01/21 07:15:14;;;;;;;1999.90;999.90;;;-0.30;99.90;;;;;;5014388;28;20032;-77
2023/01/21 07:17:40;;;;;;;1999.90;999.90;;;-0.30;99.90;;;;;;5012846;28;20029;-78
2023/01/21 07:20:06;;;;;;;1999.90;999.90;;;-0.30;99.90;;;;;;5014583;28;20057;-78
2023/01/21 07:22:35;;;;;;;1999.90;999.90;;;-0.20;99.90;;;;;;5014683;28;20037;-78
2023/01/21 07:25:00;;;;;;;1999.90;999.90;;;-0.10;99.90;;;;;;5014578;28;20053;-78
2023/01/21 07:27:26;;;;;;;1999.90;999.90;;;-0.10;99.90;;;;;;5014581;28;20069;-78
2023/01/21 07:29:51;;;;;;;1999.90;999.90;;;0.00;99.90;;;;;;5014725;28;20060;-77
2023/01/21 07:32:17;;;;;;;1999.90;999.90;;;0.00;99.90;;;;;;5013192;28;20492;-78
2023/01/21 07:34:43;;;;;;;1999.90;999.90;;;0.00;99.90;;;;;;5014463;28;20038;-77
2023/01/21 07:37:09;;;;;;;1999.90;999.90;;;0.10;99.90;;;;;;5014424;28;20030;-77
2023/01/21 07:39:34;;;;;;;1999.90;999.90;;;0.20;99.90;;;;;;5014258;28;20485;-78
2023/01/21 07:42:00;;;;;;;1999.90;999.90;;;0.30;99.90;;;;;;5014378;28;20389;-78
2023/01/21 07:44:26;;;;;;;1999.90;999.90;;;0.30;99.90;;;;;;5014035;28;20040;-78
2023/01/21 07:46:51;;;;;;;1999.90;999.90;;;0.30;99.90;;;;;;5012812;28;20029;-78
2023/01/21 07:49:17;;;;;;;1999.90;999.90;;;0.30;99.90;;;;;;5013997;28;20085;-78
2023/01/21 07:51:44;;;;;;;1999.90;999.90;;;0.40;99.90;;;;;;5014267;28;20034;-78
2023/01/21 07:54:11;;;;;;;1999.90;999.90;;;0.40;99.90;;;;;;5012357;28;20033;-78
2023/01/21 07:56:37;;;;;;;1999.90;999.90;;;0.40;99.90;;;;;;5012500;28;20053;-78
2023/01/21 07:59:02;;;;;;;1999.90;999.90;;;0.50;99.90;;;;;;5014354;28;20025;-78
2023/01/21 08:01:30;;;;;;;1999.90;999.90;;;0.60;99.90;;;;;;5013790;28;20057;-77
2023/01/21 08:03:57;;;;;;;1999.90;999.90;;;0.60;99.90;;;;;;5013993;28;20551;-78
2023/01/21 08:06:22;;;;;;;1999.90;999.90;;;0.60;99.90;;;;;;5013807;28;20121;-78
2023/01/21 08:08:48;;;;;;;1999.90;999.90;;;0.60;99.90;;;;;;5013617;28;20508;-78
2023/01/21 08:11:13;;;;;;;1999.90;999.90;;;0.70;99.90;;;;;;5013596;28;20041;-78
2023/01/21 08:13:39;;;;;;;1999.90;999.90;;;0.70;99.90;;;;;;5013716;28;20041;-78
2023/01/21 08:16:05;;;;;;;1999.90;999.90;;;0.80;99.90;;;;;;5013798;28;20037;-78
2023/01/21 08:18:31;;;;;;;1999.90;999.90;;;0.90;99.90;;;;;;5013760;28;20029;-78
2023/01/21 08:20:58;;;;;;;1999.90;999.90;;;0.90;99.90;;;;;;5012043;28;20405;-78
2023/01/21 08:23:24;;;;;;;1999.90;999.90;;;0.90;99.90;;;;;;5013369;28;20507;-78
2023/01/21 08:25:51;;;;;;;1999.90;999.90;;;1.00;99.90;;;;;;5012413;28;20075;-78
2023/01/21 08:28:16;;;;;;;1999.90;999.90;;;1.00;99.90;;;;;;5013457;28;20511;-78
2023/01/21 08:30:42;;;;;;;1999.90;999.90;;;1.10;99.90;;;;;;5013437;28;20041;-78
2023/01/21 08:33:08;;;;;;;1999.90;999.90;;;1.10;99.90;;;;;;5013249;28;20121;-78
2023/01/21 08:35:33;;;;;;;1999.90;999.90;;;1.10;99.90;;;;;;5013477;28;20072;-78
2023/01/21 08:38:00;;;;;;;1999.90;999.90;;;1.20;99.90;;;;;;5013670;28;20051;-78
2023/01/21 08:40:26;;;;;;;1999.90;999.90;;;1.30;99.90;;;;;;5013475;28;20018;-78
2023/01/21 08:43:02;;;;;;;1999.90;999.90;;;1.30;99.90;;;;;;5013331;28;20026;-78
2023/01/21 08:45:28;;;;;;;1999.90;999.90;;;1.80;99.90;;;;;;5013428;28;20388;-78
2023/01/21 08:47:54;;;;;;;1999.90;999.90;;;2.80;99.90;;;;;;5013176;28;20176;-78
2023/01/21 08:50:20;;;;;;;1999.90;999.90;;;3.50;99.90;;;;;;5013058;28;20026;-78
2023/01/21 08:52:51;;;;;;;1999.90;999.90;;;3.50;99.90;;;;;;5013121;28;20030;-78
2023/01/21 08:55:17;;;;;;;1999.90;999.90;;;3.30;99.90;;;;;;5011594;28;20116;-78
2023/01/21 08:57:43;;;;;;;1999.90;999.90;;;3.80;99.90;;;;;;5012917;28;20105;-78
2023/01/21 09:00:09;;;;;;;1999.90;999.90;;;3.80;99.90;;;;;;5013054;28;20511;-78
2023/01/21 09:02:35;;;;;;;1999.90;999.90;;;3.20;99.90;;;;;;5011940;28;20022;-78
2023/01/21 09:05:00;;;;;;;1999.90;999.90;;;2.60;99.90;;;;;;5013119;28;20549;-78
2023/01/21 09:07:26;;;;;;;1999.90;999.90;;;2.40;99.90;;;;;;5016581;28;20033;-78
2023/01/21 09:09:51;;;;;;;1999.90;999.90;;;2.20;99.90;;;;;;5015877;28;20490;-78
2023/01/21 09:12:17;;;;;;;1999.90;999.90;;;2.10;99.90;;;;;;5017465;28;20034;-78
2023/01/21 09:14:43;;;;;;;1999.90;999.90;;;2.20;99.90;;;;;;5016950;28;20524;-78
2023/01/21 09:17:09;;;;;;;1999.90;999.90;;;2.10;99.90;;;;;;5016801;28;20152;-78
2023/01/21 09:19:35;;;;;;;1999.90;999.90;;;2.10;99.90;;;;;;5016797;28;20109;-78
2023/01/21 09:22:00;;;;;;;1999.90;999.90;;;2.10;99.90;;;;;;5016510;28;20112;-78
2023/01/21 09:24:26;;;;;;;1999.90;999.90;;;2.10;99.90;;;;;;5015315;28;20406;-78
2023/01/21 09:26:52;;;;;;;1999.90;999.90;;;2.10;99.90;;;;;;5016591;28;20030;-78
2023/01/21 09:29:17;;;;;;;1999.90;999.90;;;2.10;99.90;;;;;;5016522;28;20065;-78
2023/01/21 09:31:43;;;;;;;1999.90;999.90;;;2.20;99.90;;;;;;5016979;28;20034;-78
2023/01/21 09:34:10;;;;;;;1999.90;999.90;;;2.20;99.90;;;;;;5016774;28;20038;-78
2023/01/21 09:36:37;;;;;;;1999.90;999.90;;;2.20;99.90;;;;;;5015171;28;20028;-78
2023/01/21 09:39:03;;;;;;;1999.90;999.90;;;2.20;99.90;;;;;;5016594;28;20022;-78
2023/01/21 09:41:34;;;;;;;1999.90;999.90;;;2.30;99.90;;;;;;5016537;28;20081;-78
2023/01/21 09:44:18;;;;;;;1999.90;999.90;;;2.30;99.90;;;;;;5016600;28;20030;-78
2023/01/21 09:46:43;;;;;;;1999.90;999.90;;;2.30;99.90;;;;;;5016458;28;20029;-78
2023/01/21 09:49:16;;;;;;;1999.90;999.90;;;2.30;99.90;;;;;;5016233;28;20485;-78
2023/01/21 09:51:51;;;;;;;1999.90;999.90;;;2.40;99.90;;;;;;5016304;28;20037;-78
2023/01/21 09:54:29;;;;;;;1999.90;999.90;;;2.50;99.90;;;;;;5016003;28;20560;-78
2023/01/21 09:57:05;;;;;;;1999.90;999.90;;;2.60;99.90;;;;;;5016280;28;20125;-78
2023/01/21 10:00:05;;;;;;;1999.90;999.90;;;2.60;99.90;;;;;;5014920;28;20029;-78
2023/01/21 10:02:39;;;;;;;1999.90;999.90;;;2.70;99.90;;;;;;5015781;28;20057;-78
2023/01/21 10:05:19;;;;;;;1999.90;999.90;;;2.80;99.90;;;;;;5016079;28;20044;-78
2023/01/21 10:08:15;;;;;;;1999.90;999.90;;;2.90;99.90;;;;;;5016180;28;20135;-78
2023/01/21 10:11:07;;;;;;;1999.90;999.90;;;3.10;99.90;;;;;;5012847;28;20116;-78
2023/01/21 10:13:33;;;;;;;1999.90;999.90;;;3.10;99.90;;;;;;5008949;28;20049;-78
2023/01/21 10:16:24;;;;;;;1999.90;999.90;;;3.20;99.90;;;;;;5015893;28;20030;-78
2023/01/21 10:18:52;;;;;;;1999.90;999.90;;;3.30;99.90;;;;;;5002727;28;20022;-78
2023/01/21 10:21:30;;;;;;;1999.90;999.90;;;3.40;99.90;;;;;;4996196;28;20120;-78
2023/01/21 10:24:08;;;;;;;1999.90;999.90;;;3.40;99.90;;;;;;4996292;28;20034;-79
2023/01/21 10:26:34;;;;;;;1999.90;999.90;;;3.40;99.90;;;;;;4994976;28;20022;-79
2023/01/21 10:29:00;;;;;;;1999.90;999.90;;;3.60;99.90;;;;;;4996367;28;20485;-79
2023/01/21 10:31:36;;;;;;;1999.90;999.90;;;3.60;99.90;;;;;;4996261;28;20097;-79
2023/01/21 10:34:15;;;;;;;1999.90;999.90;;;3.70;99.90;;;;;;5011191;28;20062;-78
2023/01/21 10:36:47;;;;;;;1999.90;999.90;;;3.90;99.90;;;;;;4996137;28;20549;-78
2023/01/21 10:39:39;;;;;;;1999.90;999.90;;;4.10;99.90;;;;;;4995690;28;20038;-78
2023/01/21 10:42:35;;;;;;;1999.90;999.90;;;4.20;99.90;;;;;;4996027;28;20031;-78
2023/01/21 10:45:26;;;;;;;1999.90;999.90;;;4.30;99.90;;;;;;5010541;28;20501;-78
2023/01/21 10:48:14;;;;;;;1999.90;999.90;;;4.40;99.90;;;;;;4996005;28;20482;-78
2023/01/21 10:50:47;;;;;;;1999.90;999.90;;;4.60;99.90;;;;;;4995850;28;20098;-79
2023/01/21 10:53:25;;;;;;;1999.90;999.90;;;4.70;99.90;;;;;;4996311;28;20038;-79
2023/01/21 10:56:05;;;;;;;1999.90;999.90;;;4.80;99.90;;;;;;4995175;28;20027;-79
2023/01/21 10:58:42;;;;;;;1999.90;999.90;;;4.70;99.90;;;;;;4995594;28;20061;-79
2023/01/21 11:01:20;;;;;;;1999.90;999.90;;;4.90;99.90;;;;;;4995909;28;20019;-79
2023/01/21 11:03:52;;;;;;;1999.90;999.90;;;5.00;99.90;;;;;;4995459;28;20485;-79
2023/01/21 11:06:20;;;;;;;1999.90;999.90;;;4.90;99.90;;;;;;4995908;28;20030;-79
2023/01/21 11:08:50;;;;;;;1999.90;999.90;;;5.10;99.90;;;;;;4995815;28;20041;-79
2023/01/21 11:11:25;;;;;;;1999.90;999.90;;;5.20;99.90;;;;;;5010642;28;20056;-79
2023/01/21 11:13:51;;;;;;;1999.90;999.90;;;5.20;99.90;;;;;;4995429;28;20027;-79
2023/01/21 11:16:30;;;;;;;1999.90;999.90;;;5.20;99.90;;;;;;4995711;28;20026;-79
2023/01/21 11:18:56;;;;;;;1999.90;999.90;;;5.40;99.90;;;;;;4995247;28;20026;-79
2023/01/21 11:21:24;;;;;;;1999.90;999.90;;;5.40;99.90;;;;;;4995265;28;20125;-79
2023/01/21 11:24:02;;;;;;;1999.90;999.90;;;5.60;99.90;;;;;;4995376;28;20026;-79
2023/01/21 11:26:28;;;;;;;1999.90;999.90;;;5.60;99.90;;;;;;4995233;28;20402;-79
2023/01/21 11:29:16;;;;;;;1999.90;999.90;;;5.70;99.90;;;;;;4994875;28;20022;-79
2023/01/21 11:31:48;;;;;;;1999.90;999.90;;;5.80;99.90;;;;;;4995154;28;20050;-78
2023/01/21 11:34:17;;;;;;;1999.90;999.90;;;5.80;99.90;;;;;;4995437;28;20030;-79
2023/01/21 11:37:01;;;;;;;1999.90;999.90;;;5.90;99.90;;;;;;4995253;28;20050;-79
2023/01/21 11:39:33;;;;;;;1999.90;999.90;;;6.20;99.90;;;;;;4993696;28;20513;-79
2023/01/21 11:42:14;;;;;;;1999.90;999.90;;;6.30;99.90;;;;;;4995169;28;20029;-79
2023/01/21 11:45:00;;;;;;;1999.90;999.90;;;6.20;99.90;;;;;;4994884;28;20033;-79
2023/01/21 11:47:47;;;;;;;1999.90;999.90;;;6.20;99.90;;;;;;4994949;28;20022;-78
2023/01/21 11:50:15;;;;;;;1999.90;999.90;;;6.40;99.90;;;;;;5015981;28;20018;-78
2023/01/21 11:52:41;;;;;;;1999.90;999.90;;;6.40;99.90;;;;;;4995768;28;20030;-79
2023/01/21 11:55:22;;;;;;;1999.90;999.90;;;6.40;99.90;;;;;;4994509;28;20080;-79
2023/01/21 11:57:51;;;;;;;1999.90;999.90;;;6.60;99.90;;;;;;5000068;28;20026;-79
2023/01/21 12:00:20;;;;;;;1999.90;999.90;;;6.60;99.90;;;;;;5014913;28;20022;-79
2023/01/21 12:02:52;;;;;;;1999.90;999.90;;;6.90;99.90;;;;;;5015725;28;20022;-79
2023/01/21 12:05:41;;;;;;;1999.90;999.90;;;6.90;99.90;;;;;;5014957;28;20072;-79
2023/01/21 12:08:28;;;;;;;1999.90;999.90;;;7.00;99.90;;;;;;5014202;28;20052;-79
2023/01/21 12:11:00;;;;;;;1999.90;999.90;;;7.20;99.90;;;;;;5013910;28;20022;-79
2023/01/21 12:13:48;;;;;;;1999.90;999.90;;;7.20;99.90;;;;;;5014111;28;20449;-79
2023/01/21 12:16:32;;;;;;;1999.90;999.90;;;7.10;99.90;;;;;;5014159;28;20022;-79
2023/01/21 12:19:15;;;;;;;1999.90;999.90;;;7.10;99.90;;;;;;5012462;28;20053;-79
2023/01/21 12:21:50;;;;;;;1999.90;999.90;;;7.00;99.90;;;;;;5012313;28;20073;-79